sensor_id;sensor_type;location;lat;lon;timestamp;P1;durP1;ratioP1;P2;durP2;ratioP2
7336;SDS011;54510;42.016;23.098;2023-10-13T00:00:22;8.55;;;5.32;;
7336;SDS011;54510;42.016;23.098;2023-10-13T00:02:55;8.43;;;5.10;;
7336;SDS011;54510;42.016;23.098;2023-10-13T00:05:25;7.35;;;5.32;;
7336;SDS011;54510;42.016;23.098;2023-10-13T00:07:56;9.38;;;5.53;;
7336;SDS011;54510;42.016;23.098;2023-10-13T00:10:26;11.40;;;5.90;;
7336;SDS011;54510;42.016;23.098;2023-10-13T00:12:55;9.80;;;4.82;;
7336;SDS011;54510;42.016;23.098;2023-10-13T00:15:38;6.28;;;4.00;;
7336;SDS011;54510;42.016;23.098;2023-10-13T00:18:26;5.45;;;3.90;;
7336;SDS011;54510;42.016;23.098;2023-10-13T00:21:02;6.88;;;3.80;;
7336;SDS011;54510;42.016;23.098;2023-10-13T00:23:37;7.13;;;4.93;;
7336;SDS011;54510;42.016;23.098;2023-10-13T00:26:04;7.38;;;4.53;;
7336;SDS011;54510;42.016;23.098;2023-10-13T00:28:34;8.05;;;5.28;;
7336;SDS011;54510;42.016;23.098;2023-10-13T00:31:22;7.18;;;4.82;;
7336;SDS011;54510;42.016;23.098;2023-10-13T00:33:48;9.68;;;5.60;;
7336;SDS011;54510;42.016;23.098;2023-10-13T00:36:16;14.00;;;5.60;;
7336;SDS011;54510;42.016;23.098;2023-10-13T00:38:44;8.00;;;5.22;;
7336;SDS011;54510;42.016;23.098;2023-10-13T00:41:13;9.05;;;4.88;;
7336;SDS011;54510;42.016;23.098;2023-10-13T00:43:44;6.80;;;5.00;;
7336;SDS011;54510;42.016;23.098;2023-10-13T00:46:10;7.28;;;5.07;;
7336;SDS011;54510;42.016;23.098;2023-10-13T00:48:40;12.23;;;5.65;;
7336;SDS011;54510;42.016;23.098;2023-10-13T00:51:08;11.13;;;6.70;;
7336;SDS011;54510;42.016;23.098;2023-10-13T00:53:59;13.65;;;5.75;;
7336;SDS011;54510;42.016;23.098;2023-10-13T00:56:39;10.50;;;5.65;;
7336;SDS011;54510;42.016;23.098;2023-10-13T00:59:10;9.32;;;5.32;;
7336;SDS011;54510;42.016;23.098;2023-10-13T01:01:38;12.23;;;4.85;;
7336;SDS011;54510;42.016;23.098;2023-10-13T01:04:07;12.23;;;5.22;;
7336;SDS011;54510;42.016;23.098;2023-10-13T01:06:33;9.73;;;4.85;;
7336;SDS011;54510;42.016;23.098;2023-10-13T01:09:06;9.52;;;5.78;;
7336;SDS011;54510;42.016;23.098;2023-10-13T01:11:42;8.77;;;5.28;;
7336;SDS011;54510;42.016;23.098;2023-10-13T01:14:10;9.40;;;4.97;;
7336;SDS011;54510;42.016;23.098;2023-10-13T01:16:42;9.18;;;5.97;;
7336;SDS011;54510;42.016;23.098;2023-10-13T01:19:14;11.38;;;4.82;;
7336;SDS011;54510;42.016;23.098;2023-10-13T01:24:10;8.93;;;5.00;;
7336;SDS011;54510;42.016;23.098;2023-10-13T01:26:39;9.13;;;5.05;;
7336;SDS011;54510;42.016;23.098;2023-10-13T01:29:05;9.77;;;5.18;;
7336;SDS011;54510;42.016;23.098;2023-10-13T01:31:38;7.38;;;4.93;;
7336;SDS011;54510;42.016;23.098;2023-10-13T01:34:11;9.97;;;5.63;;
7336;SDS011;54510;42.016;23.098;2023-10-13T01:36:52;9.50;;;5.40;;
7336;SDS011;54510;42.016;23.098;2023-10-13T01:39:20;6.50;;;5.18;;
7336;SDS011;54510;42.016;23.098;2023-10-13T01:41:51;11.15;;;5.13;;
7336;SDS011;54510;42.016;23.098;2023-10-13T01:46:58;6.93;;;3.88;;
7336;SDS011;54510;42.016;23.098;2023-10-13T01:49:31;7.28;;;3.60;;
7336;SDS011;54510;42.016;23.098;2023-10-13T01:52:07;5.18;;;3.47;;
7336;SDS011;54510;42.016;23.098;2023-10-13T01:54:33;5.88;;;4.35;;
7336;SDS011;54510;42.016;23.098;2023-10-13T01:56:58;5.80;;;4.25;;
7336;SDS011;54510;42.016;23.098;2023-10-13T01:59:25;5.72;;;3.55;;
7336;SDS011;54510;42.016;23.098;2023-10-13T02:01:51;6.78;;;4.20;;
7336;SDS011;54510;42.016;23.098;2023-10-13T02:04:20;11.13;;;5.68;;
7336;SDS011;54510;42.016;23.098;2023-10-13T02:06:46;10.20;;;6.07;;
7336;SDS011;54510;42.016;23.098;2023-10-13T02:09:11;8.93;;;6.10;;
7336;SDS011;54510;42.016;23.098;2023-10-13T02:11:51;9.10;;;5.60;;
7336;SDS011;54510;42.016;23.098;2023-10-13T02:14:20;10.52;;;6.38;;
7336;SDS011;54510;42.016;23.098;2023-10-13T02:16:50;8.70;;;5.50;;
7336;SDS011;54510;42.016;23.098;2023-10-13T02:19:16;11.43;;;6.95;;
7336;SDS011;54510;42.016;23.098;2023-10-13T02:21:44;9.52;;;5.85;;
7336;SDS011;54510;42.016;23.098;2023-10-13T02:24:10;8.93;;;4.97;;
7336;SDS011;54510;42.016;23.098;2023-10-13T02:26:43;8.50;;;5.22;;
7336;SDS011;54510;42.016;23.098;2023-10-13T02:29:09;6.97;;;4.72;;
7336;SDS011;54510;42.016;23.098;2023-10-13T02:31:38;7.72;;;4.65;;
7336;SDS011;54510;42.016;23.098;2023-10-13T02:34:05;12.25;;;6.50;;
7336;SDS011;54510;42.016;23.098;2023-10-13T02:36:34;9.05;;;5.43;;
7336;SDS011;54510;42.016;23.098;2023-10-13T02:39:13;10.43;;;6.63;;
7336;SDS011;54510;42.016;23.098;2023-10-13T02:41:41;9.80;;;6.18;;
7336;SDS011;54510;42.016;23.098;2023-10-13T02:44:12;9.15;;;5.70;;
7336;SDS011;54510;42.016;23.098;2023-10-13T02:46:45;8.00;;;5.43;;
7336;SDS011;54510;42.016;23.098;2023-10-13T02:49:15;8.68;;;5.95;;
7336;SDS011;54510;42.016;23.098;2023-10-13T02:51:44;9.98;;;5.40;;
7336;SDS011;54510;42.016;23.098;2023-10-13T02:54:10;9.77;;;5.95;;
7336;SDS011;54510;42.016;23.098;2023-10-13T02:56:36;8.88;;;5.47;;
7336;SDS011;54510;42.016;23.098;2023-10-13T02:59:14;7.93;;;5.75;;
7336;SDS011;54510;42.016;23.098;2023-10-13T03:01:40;11.65;;;5.80;;
7336;SDS011;54510;42.016;23.098;2023-10-13T03:04:06;8.70;;;6.07;;
7336;SDS011;54510;42.016;23.098;2023-10-13T03:06:33;8.98;;;5.72;;
7336;SDS011;54510;42.016;23.098;2023-10-13T03:09:04;9.88;;;5.72;;
7336;SDS011;54510;42.016;23.098;2023-10-13T03:14:15;9.65;;;5.68;;
7336;SDS011;54510;42.016;23.098;2023-10-13T03:16:51;9.57;;;6.20;;
7336;SDS011;54510;42.016;23.098;2023-10-13T03:19:17;10.23;;;5.65;;
7336;SDS011;54510;42.016;23.098;2023-10-13T03:21:46;12.50;;;6.57;;
7336;SDS011;54510;42.016;23.098;2023-10-13T03:24:20;7.47;;;5.10;;
7336;SDS011;54510;42.016;23.098;2023-10-13T03:26:58;11.48;;;6.40;;
7336;SDS011;54510;42.016;23.098;2023-10-13T03:29:40;11.07;;;5.47;;
7336;SDS011;54510;42.016;23.098;2023-10-13T03:32:09;10.07;;;6.00;;
7336;SDS011;54510;42.016;23.098;2023-10-13T03:34:40;8.82;;;5.97;;
7336;SDS011;54510;42.016;23.098;2023-10-13T03:37:14;8.75;;;5.28;;
7336;SDS011;54510;42.016;23.098;2023-10-13T03:39:59;10.13;;;4.75;;
7336;SDS011;54510;42.016;23.098;2023-10-13T03:42:25;11.88;;;6.20;;
7336;SDS011;54510;42.016;23.098;2023-10-13T03:44:50;11.68;;;6.47;;
7336;SDS011;54510;42.016;23.098;2023-10-13T03:47:16;11.75;;;5.32;;
7336;SDS011;54510;42.016;23.098;2023-10-13T03:49:51;9.40;;;6.45;;
7336;SDS011;54510;42.016;23.098;2023-10-13T03:52:38;14.57;;;7.57;;
7336;SDS011;54510;42.016;23.098;2023-10-13T03:55:03;13.60;;;6.55;;
7336;SDS011;54510;42.016;23.098;2023-10-13T03:57:30;10.38;;;5.80;;
7336;SDS011;54510;42.016;23.098;2023-10-13T03:59:58;9.55;;;5.80;;
7336;SDS011;54510;42.016;23.098;2023-10-13T04:02:30;11.70;;;6.80;;
7336;SDS011;54510;42.016;23.098;2023-10-13T04:04:56;9.23;;;5.95;;
7336;SDS011;54510;42.016;23.098;2023-10-13T04:07:30;9.85;;;6.35;;
7336;SDS011;54510;42.016;23.098;2023-10-13T04:09:58;10.23;;;6.13;;
7336;SDS011;54510;42.016;23.098;2023-10-13T04:15:26;21.05;;;11.18;;
7336;SDS011;54510;42.016;23.098;2023-10-13T04:18:02;20.25;;;11.73;;
7336;SDS011;54510;42.016;23.098;2023-10-13T04:20:39;11.73;;;6.72;;
7336;SDS011;54510;42.016;23.098;2023-10-13T04:23:04;7.72;;;5.72;;
7336;SDS011;54510;42.016;23.098;2023-10-13T04:25:43;12.27;;;6.40;;
7336;SDS011;54510;42.016;23.098;2023-10-13T04:28:29;14.73;;;6.63;;
7336;SDS011;54510;42.016;23.098;2023-10-13T04:31:02;18.77;;;6.43;;
7336;SDS011;54510;42.016;23.098;2023-10-13T04:33:37;13.95;;;6.15;;
7336;SDS011;54510;42.016;23.098;2023-10-13T04:36:16;16.95;;;5.75;;
7336;SDS011;54510;42.016;23.098;2023-10-13T04:38:52;14.73;;;5.88;;
7336;SDS011;54510;42.016;23.098;2023-10-13T04:41:32;19.58;;;7.20;;
7336;SDS011;54510;42.016;23.098;2023-10-13T04:44:04;23.20;;;7.20;;
7336;SDS011;54510;42.016;23.098;2023-10-13T04:46:30;24.20;;;9.32;;
7336;SDS011;54510;42.016;23.098;2023-10-13T04:49:11;17.90;;;8.25;;
7336;SDS011;54510;42.016;23.098;2023-10-13T04:51:52;18.05;;;7.85;;
7336;SDS011;54510;42.016;23.098;2023-10-13T04:54:27;16.70;;;8.57;;
7336;SDS011;54510;42.016;23.098;2023-10-13T04:57:00;16.02;;;8.00;;
7336;SDS011;54510;42.016;23.098;2023-10-13T04:59:45;22.42;;;9.10;;
7336;SDS011;54510;42.016;23.098;2023-10-13T05:02:29;18.65;;;7.03;;
7336;SDS011;54510;42.016;23.098;2023-10-13T05:07:45;22.17;;;8.68;;
7336;SDS011;54510;42.016;23.098;2023-10-13T05:10:29;23.90;;;10.25;;
7336;SDS011;54510;42.016;23.098;2023-10-13T05:13:14;23.52;;;8.95;;
7336;SDS011;54510;42.016;23.098;2023-10-13T05:15:58;19.67;;;8.13;;
7336;SDS011;54510;42.016;23.098;2023-10-13T05:18:42;24.05;;;8.82;;
7336;SDS011;54510;42.016;23.098;2023-10-13T05:21:26;30.17;;;8.57;;
7336;SDS011;54510;42.016;23.098;2023-10-13T05:24:10;18.33;;;8.48;;
7336;SDS011;54510;42.016;23.098;2023-10-13T05:26:54;15.38;;;7.47;;
7336;SDS011;54510;42.016;23.098;2023-10-13T05:29:48;13.63;;;6.68;;
7336;SDS011;54510;42.016;23.098;2023-10-13T05:32:32;11.00;;;5.78;;
7336;SDS011;54510;42.016;23.098;2023-10-13T05:35:18;16.33;;;8.88;;
7336;SDS011;54510;42.016;23.098;2023-10-13T05:38:03;16.58;;;10.10;;
7336;SDS011;54510;42.016;23.098;2023-10-13T05:40:54;11.57;;;6.75;;
7336;SDS011;54510;42.016;23.098;2023-10-13T05:43:41;14.95;;;6.63;;
7336;SDS011;54510;42.016;23.098;2023-10-13T05:46:26;10.27;;;6.13;;
7336;SDS011;54510;42.016;23.098;2023-10-13T05:48:51;11.70;;;6.88;;
7336;SDS011;54510;42.016;23.098;2023-10-13T05:51:26;12.65;;;6.55;;
7336;SDS011;54510;42.016;23.098;2023-10-13T05:54:12;17.77;;;7.82;;
7336;SDS011;54510;42.016;23.098;2023-10-13T05:56:42;13.27;;;6.70;;
7336;SDS011;54510;42.016;23.098;2023-10-13T05:59:26;11.88;;;6.63;;
7336;SDS011;54510;42.016;23.098;2023-10-13T06:02:10;22.38;;;10.48;;
7336;SDS011;54510;42.016;23.098;2023-10-13T06:04:55;35.72;;;10.82;;
7336;SDS011;54510;42.016;23.098;2023-10-13T06:07:39;29.20;;;11.80;;
7336;SDS011;54510;42.016;23.098;2023-10-13T06:10:23;27.38;;;10.65;;
7336;SDS011;54510;42.016;23.098;2023-10-13T06:13:07;36.90;;;10.55;;
7336;SDS011;54510;42.016;23.098;2023-10-13T06:15:51;39.20;;;12.23;;
7336;SDS011;54510;42.016;23.098;2023-10-13T06:18:35;52.90;;;17.73;;
7336;SDS011;54510;42.016;23.098;2023-10-13T06:21:22;51.17;;;14.32;;
7336;SDS011;54510;42.016;23.098;2023-10-13T06:24:06;40.13;;;12.90;;
7336;SDS011;54510;42.016;23.098;2023-10-13T06:26:51;30.92;;;12.55;;
7336;SDS011;54510;42.016;23.098;2023-10-13T06:29:35;30.13;;;10.80;;
7336;SDS011;54510;42.016;23.098;2023-10-13T06:32:01;25.80;;;10.98;;
7336;SDS011;54510;42.016;23.098;2023-10-13T06:34:29;28.73;;;11.00;;
7336;SDS011;54510;42.016;23.098;2023-10-13T06:37:10;28.88;;;10.18;;
7336;SDS011;54510;42.016;23.098;2023-10-13T06:39:57;17.75;;;8.40;;
7336;SDS011;54510;42.016;23.098;2023-10-13T06:42:31;22.88;;;10.38;;
7336;SDS011;54510;42.016;23.098;2023-10-13T06:44:59;19.85;;;9.90;;
7336;SDS011;54510;42.016;23.098;2023-10-13T06:47:28;27.05;;;10.75;;
7336;SDS011;54510;42.016;23.098;2023-10-13T06:49:54;23.00;;;13.80;;
7336;SDS011;54510;42.016;23.098;2023-10-13T06:52:22;21.23;;;11.18;;
7336;SDS011;54510;42.016;23.098;2023-10-13T06:54:51;29.75;;;10.55;;
7336;SDS011;54510;42.016;23.098;2023-10-13T06:57:18;19.75;;;10.30;;
7336;SDS011;54510;42.016;23.098;2023-10-13T06:59:46;27.95;;;9.85;;
7336;SDS011;54510;42.016;23.098;2023-10-13T07:02:12;24.88;;;10.40;;
7336;SDS011;54510;42.016;23.098;2023-10-13T07:04:47;22.88;;;11.27;;
7336;SDS011;54510;42.016;23.098;2023-10-13T07:07:13;30.65;;;12.40;;
7336;SDS011;54510;42.016;23.098;2023-10-13T07:09:43;30.95;;;10.57;;
7336;SDS011;54510;42.016;23.098;2023-10-13T07:12:20;21.50;;;9.20;;
7336;SDS011;54510;42.016;23.098;2023-10-13T07:14:51;19.63;;;11.13;;
7336;SDS011;54510;42.016;23.098;2023-10-13T07:17:21;19.00;;;8.43;;
7336;SDS011;54510;42.016;23.098;2023-10-13T07:19:50;19.27;;;9.55;;
7336;SDS011;54510;42.016;23.098;2023-10-13T07:22:21;16.20;;;7.75;;
7336;SDS011;54510;42.016;23.098;2023-10-13T07:24:48;17.85;;;8.90;;
7336;SDS011;54510;42.016;23.098;2023-10-13T07:27:18;15.25;;;9.20;;
7336;SDS011;54510;42.016;23.098;2023-10-13T07:29:51;26.73;;;8.82;;
7336;SDS011;54510;42.016;23.098;2023-10-13T07:32:24;23.65;;;7.97;;
7336;SDS011;54510;42.016;23.098;2023-10-13T07:34:53;16.00;;;8.10;;
7336;SDS011;54510;42.016;23.098;2023-10-13T07:37:22;30.63;;;8.25;;
7336;SDS011;54510;42.016;23.098;2023-10-13T07:39:53;17.23;;;7.82;;
7336;SDS011;54510;42.016;23.098;2023-10-13T07:42:22;24.95;;;8.40;;
7336;SDS011;54510;42.016;23.098;2023-10-13T07:44:50;33.85;;;14.75;;
7336;SDS011;54510;42.016;23.098;2023-10-13T07:47:20;18.48;;;9.43;;
7336;SDS011;54510;42.016;23.098;2023-10-13T07:49:49;23.50;;;11.88;;
7336;SDS011;54510;42.016;23.098;2023-10-13T07:52:16;14.70;;;8.80;;
7336;SDS011;54510;42.016;23.098;2023-10-13T07:54:47;16.00;;;9.15;;
7336;SDS011;54510;42.016;23.098;2023-10-13T07:57:15;18.35;;;9.02;;
7336;SDS011;54510;42.016;23.098;2023-10-13T07:59:41;18.48;;;8.98;;
7336;SDS011;54510;42.016;23.098;2023-10-13T08:02:13;13.00;;;7.80;;
7336;SDS011;54510;42.016;23.098;2023-10-13T08:04:40;24.52;;;8.38;;
7336;SDS011;54510;42.016;23.098;2023-10-13T08:07:05;17.98;;;8.77;;
7336;SDS011;54510;42.016;23.098;2023-10-13T08:09:41;13.40;;;8.27;;
7336;SDS011;54510;42.016;23.098;2023-10-13T08:12:08;19.20;;;7.78;;
7336;SDS011;54510;42.016;23.098;2023-10-13T08:14:37;14.25;;;7.32;;
7336;SDS011;54510;42.016;23.098;2023-10-13T08:17:06;10.82;;;6.50;;
7336;SDS011;54510;42.016;23.098;2023-10-13T08:19:36;14.70;;;7.45;;
7336;SDS011;54510;42.016;23.098;2023-10-13T08:22:10;13.63;;;8.20;;
7336;SDS011;54510;42.016;23.098;2023-10-13T08:24:48;11.25;;;6.32;;
7336;SDS011;54510;42.016;23.098;2023-10-13T08:27:16;14.90;;;6.72;;
7336;SDS011;54510;42.016;23.098;2023-10-13T08:29:59;13.15;;;6.85;;
7336;SDS011;54510;42.016;23.098;2023-10-13T08:32:44;14.15;;;8.00;;
7336;SDS011;54510;42.016;23.098;2023-10-13T08:35:29;10.38;;;6.47;;
7336;SDS011;54510;42.016;23.098;2023-10-13T08:37:55;15.65;;;6.70;;
7336;SDS011;54510;42.016;23.098;2023-10-13T08:40:26;11.85;;;6.35;;
7336;SDS011;54510;42.016;23.098;2023-10-13T08:43:12;15.13;;;5.93;;
7336;SDS011;54510;42.016;23.098;2023-10-13T08:45:41;14.25;;;6.43;;
7336;SDS011;54510;42.016;23.098;2023-10-13T08:48:08;13.70;;;6.10;;
7336;SDS011;54510;42.016;23.098;2023-10-13T08:53:21;13.65;;;5.75;;
7336;SDS011;54510;42.016;23.098;2023-10-13T08:58:39;13.15;;;5.53;;
7336;SDS011;54510;42.016;23.098;2023-10-13T09:01:18;10.23;;;4.75;;
7336;SDS011;54510;42.016;23.098;2023-10-13T09:04:15;9.43;;;5.13;;
7336;SDS011;54510;42.016;23.098;2023-10-13T09:09:30;13.00;;;6.80;;
7336;SDS011;54510;42.016;23.098;2023-10-13T09:12:01;28.85;;;16.17;;
7336;SDS011;54510;42.016;23.098;2023-10-13T09:14:35;13.85;;;5.90;;
7336;SDS011;54510;42.016;23.098;2023-10-13T09:17:04;14.52;;;5.70;;
7336;SDS011;54510;42.016;23.098;2023-10-13T09:19:49;21.55;;;12.98;;
7336;SDS011;54510;42.016;23.098;2023-10-13T09:22:26;18.38;;;7.45;;
7336;SDS011;54510;42.016;23.098;2023-10-13T09:25:02;9.00;;;5.13;;
7336;SDS011;54510;42.016;23.098;2023-10-13T09:27:38;17.08;;;7.72;;
7336;SDS011;54510;42.016;23.098;2023-10-13T09:30:04;21.05;;;9.25;;
7336;SDS011;54510;42.016;23.098;2023-10-13T09:32:46;13.70;;;7.45;;
7336;SDS011;54510;42.016;23.098;2023-10-13T09:35:18;11.40;;;5.88;;
7336;SDS011;54510;42.016;23.098;2023-10-13T09:37:45;9.50;;;5.55;;
7336;SDS011;54510;42.016;23.098;2023-10-13T09:40:12;6.50;;;4.25;;
7336;SDS011;54510;42.016;23.098;2023-10-13T09:43:12;10.77;;;4.95;;
7336;SDS011;54510;42.016;23.098;2023-10-13T09:45:42;7.47;;;4.40;;
7336;SDS011;54510;42.016;23.098;2023-10-13T09:48:35;14.52;;;5.13;;
7336;SDS011;54510;42.016;23.098;2023-10-13T09:51:05;12.40;;;5.38;;
7336;SDS011;54510;42.016;23.098;2023-10-13T09:53:37;10.70;;;5.70;;
7336;SDS011;54510;42.016;23.098;2023-10-13T09:56:16;16.45;;;6.55;;
7336;SDS011;54510;42.016;23.098;2023-10-13T09:58:52;14.93;;;6.13;;
7336;SDS011;54510;42.016;23.098;2023-10-13T10:01:27;10.52;;;5.93;;
7336;SDS011;54510;42.016;23.098;2023-10-13T10:04:06;14.88;;;6.05;;
7336;SDS011;54510;42.016;23.098;2023-10-13T10:06:39;9.82;;;6.47;;
7336;SDS011;54510;42.016;23.098;2023-10-13T10:09:10;10.48;;;5.18;;
7336;SDS011;54510;42.016;23.098;2023-10-13T10:14:17;15.95;;;5.70;;
7336;SDS011;54510;42.016;23.098;2023-10-13T10:19:18;11.60;;;5.20;;
7336;SDS011;54510;42.016;23.098;2023-10-13T10:21:43;14.35;;;5.95;;
7336;SDS011;54510;42.016;23.098;2023-10-13T10:24:15;11.57;;;4.82;;
7336;SDS011;54510;42.016;23.098;2023-10-13T10:26:52;11.82;;;5.65;;
7336;SDS011;54510;42.016;23.098;2023-10-13T10:29:18;12.25;;;5.18;;
7336;SDS011;54510;42.016;23.098;2023-10-13T10:31:43;12.82;;;5.68;;
7336;SDS011;54510;42.016;23.098;2023-10-13T10:34:16;13.20;;;5.65;;
7336;SDS011;54510;42.016;23.098;2023-10-13T10:36:55;11.93;;;6.03;;
7336;SDS011;54510;42.016;23.098;2023-10-13T10:39:44;14.07;;;6.40;;
7336;SDS011;54510;42.016;23.098;2023-10-13T10:42:12;10.55;;;4.55;;
7336;SDS011;54510;42.016;23.098;2023-10-13T10:44:43;17.25;;;5.22;;
7336;SDS011;54510;42.016;23.098;2023-10-13T10:47:09;11.63;;;4.70;;
7336;SDS011;54510;42.016;23.098;2023-10-13T10:49:39;13.15;;;5.05;;
7336;SDS011;54510;42.016;23.098;2023-10-13T10:52:07;10.52;;;6.32;;
7336;SDS011;54510;42.016;23.098;2023-10-13T10:54:44;22.20;;;6.05;;
7336;SDS011;54510;42.016;23.098;2023-10-13T10:57:11;15.25;;;5.93;;
7336;SDS011;54510;42.016;23.098;2023-10-13T10:59:40;8.52;;;5.45;;
7336;SDS011;54510;42.016;23.098;2023-10-13T11:02:06;15.98;;;6.13;;
7336;SDS011;54510;42.016;23.098;2023-10-13T11:04:33;12.00;;;4.50;;
7336;SDS011;54510;42.016;23.098;2023-10-13T11:06:59;17.33;;;5.30;;
7336;SDS011;54510;42.016;23.098;2023-10-13T11:09:25;9.82;;;4.70;;
7336;SDS011;54510;42.016;23.098;2023-10-13T11:14:48;12.82;;;4.15;;
7336;SDS011;54510;42.016;23.098;2023-10-13T11:17:25;12.45;;;4.95;;
7336;SDS011;54510;42.016;23.098;2023-10-13T11:20:11;9.70;;;5.00;;
7336;SDS011;54510;42.016;23.098;2023-10-13T11:22:45;12.57;;;5.68;;
7336;SDS011;54510;42.016;23.098;2023-10-13T11:25:19;19.20;;;5.57;;
7336;SDS011;54510;42.016;23.098;2023-10-13T11:27:55;10.98;;;4.68;;
7336;SDS011;54510;42.016;23.098;2023-10-13T11:30:23;11.15;;;4.53;;
7336;SDS011;54510;42.016;23.098;2023-10-13T11:35:31;13.35;;;5.70;;
7336;SDS011;54510;42.016;23.098;2023-10-13T11:38:17;8.68;;;4.30;;
7336;SDS011;54510;42.016;23.098;2023-10-13T11:40:58;9.40;;;4.35;;
7336;SDS011;54510;42.016;23.098;2023-10-13T11:43:32;16.65;;;8.20;;
7336;SDS011;54510;42.016;23.098;2023-10-13T11:46:12;9.57;;;5.43;;
7336;SDS011;54510;42.016;23.098;2023-10-13T11:48:43;12.98;;;5.90;;
7336;SDS011;54510;42.016;23.098;2023-10-13T11:51:11;14.85;;;5.13;;
7336;SDS011;54510;42.016;23.098;2023-10-13T11:53:49;19.70;;;10.38;;
7336;SDS011;54510;42.016;23.098;2023-10-13T11:56:19;12.35;;;7.70;;
7336;SDS011;54510;42.016;23.098;2023-10-13T11:58:48;12.45;;;7.68;;
7336;SDS011;54510;42.016;23.098;2023-10-13T12:01:14;14.40;;;6.22;;
7336;SDS011;54510;42.016;23.098;2023-10-13T12:03:40;14.73;;;6.90;;
7336;SDS011;54510;42.016;23.098;2023-10-13T12:06:25;12.68;;;5.70;;
7336;SDS011;54510;42.016;23.098;2023-10-13T12:09:01;15.80;;;7.55;;
7336;SDS011;54510;42.016;23.098;2023-10-13T12:11:36;10.90;;;5.43;;
7336;SDS011;54510;42.016;23.098;2023-10-13T12:14:06;11.68;;;5.45;;
7336;SDS011;54510;42.016;23.098;2023-10-13T12:16:50;10.75;;;5.80;;
7336;SDS011;54510;42.016;23.098;2023-10-13T12:19:20;11.50;;;5.70;;
7336;SDS011;54510;42.016;23.098;2023-10-13T12:21:49;16.40;;;6.25;;
7336;SDS011;54510;42.016;23.098;2023-10-13T12:24:19;9.88;;;5.47;;
7336;SDS011;54510;42.016;23.098;2023-10-13T12:26:56;14.23;;;6.68;;
7336;SDS011;54510;42.016;23.098;2023-10-13T12:29:25;11.00;;;5.10;;
7336;SDS011;54510;42.016;23.098;2023-10-13T12:31:54;10.80;;;6.68;;
7336;SDS011;54510;42.016;23.098;2023-10-13T12:34:32;15.52;;;6.68;;
7336;SDS011;54510;42.016;23.098;2023-10-13T12:37:17;15.48;;;6.45;;
7336;SDS011;54510;42.016;23.098;2023-10-13T12:40:01;13.60;;;6.43;;
7336;SDS011;54510;42.016;23.098;2023-10-13T12:42:48;14.80;;;6.05;;
7336;SDS011;54510;42.016;23.098;2023-10-13T12:45:32;12.05;;;5.50;;
7336;SDS011;54510;42.016;23.098;2023-10-13T12:48:16;12.35;;;4.93;;
7336;SDS011;54510;42.016;23.098;2023-10-13T12:51:01;9.70;;;4.75;;
7336;SDS011;54510;42.016;23.098;2023-10-13T12:53:45;12.52;;;6.28;;
7336;SDS011;54510;42.016;23.098;2023-10-13T12:56:17;12.95;;;5.10;;
7336;SDS011;54510;42.016;23.098;2023-10-13T12:58:50;31.50;;;17.30;;
7336;SDS011;54510;42.016;23.098;2023-10-13T13:01:17;16.73;;;5.25;;
7336;SDS011;54510;42.016;23.098;2023-10-13T13:03:45;12.15;;;5.50;;
7336;SDS011;54510;42.016;23.098;2023-10-13T13:06:15;12.27;;;4.65;;
7336;SDS011;54510;42.016;23.098;2023-10-13T13:08:53;13.50;;;5.60;;
7336;SDS011;54510;42.016;23.098;2023-10-13T13:11:19;12.27;;;4.85;;
7336;SDS011;54510;42.016;23.098;2023-10-13T13:13:45;12.00;;;5.05;;
7336;SDS011;54510;42.016;23.098;2023-10-13T13:16:12;7.57;;;4.03;;
7336;SDS011;54510;42.016;23.098;2023-10-13T13:18:38;15.68;;;6.60;;
7336;SDS011;54510;42.016;23.098;2023-10-13T13:21:04;15.75;;;4.38;;
7336;SDS011;54510;42.016;23.098;2023-10-13T13:23:31;10.95;;;4.60;;
7336;SDS011;54510;42.016;23.098;2023-10-13T13:25:59;10.05;;;4.47;;
7336;SDS011;54510;42.016;23.098;2023-10-13T13:28:25;11.45;;;4.93;;
7336;SDS011;54510;42.016;23.098;2023-10-13T13:30:53;8.57;;;4.82;;
7336;SDS011;54510;42.016;23.098;2023-10-13T13:33:19;11.07;;;5.15;;
7336;SDS011;54510;42.016;23.098;2023-10-13T13:35:49;10.35;;;5.38;;
7336;SDS011;54510;42.016;23.098;2023-10-13T13:38:17;11.18;;;4.88;;
7336;SDS011;54510;42.016;23.098;2023-10-13T13:40:54;6.28;;;3.90;;
7336;SDS011;54510;42.016;23.098;2023-10-13T13:43:20;9.77;;;4.55;;
7336;SDS011;54510;42.016;23.098;2023-10-13T13:46:09;10.98;;;4.70;;
7336;SDS011;54510;42.016;23.098;2023-10-13T13:48:38;11.70;;;4.70;;
7336;SDS011;54510;42.016;23.098;2023-10-13T13:51:06;17.90;;;4.13;;
7336;SDS011;54510;42.016;23.098;2023-10-13T13:53:39;8.00;;;3.67;;
7336;SDS011;54510;42.016;23.098;2023-10-13T13:56:10;8.57;;;3.88;;
7336;SDS011;54510;42.016;23.098;2023-10-13T14:01:10;11.32;;;4.70;;
7336;SDS011;54510;42.016;23.098;2023-10-13T14:03:44;15.27;;;8.30;;
7336;SDS011;54510;42.016;23.098;2023-10-13T14:06:14;29.08;;;11.50;;
7336;SDS011;54510;42.016;23.098;2023-10-13T14:08:48;8.90;;;4.60;;
7336;SDS011;54510;42.016;23.098;2023-10-13T14:11:14;14.57;;;6.28;;
7336;SDS011;54510;42.016;23.098;2023-10-13T14:13:59;11.45;;;4.80;;
7336;SDS011;54510;42.016;23.098;2023-10-13T14:16:29;10.65;;;5.38;;
7336;SDS011;54510;42.016;23.098;2023-10-13T14:18:55;18.50;;;9.45;;
7336;SDS011;54510;42.016;23.098;2023-10-13T14:21:20;26.20;;;14.23;;
7336;SDS011;54510;42.016;23.098;2023-10-13T14:23:49;23.83;;;10.00;;
7336;SDS011;54510;42.016;23.098;2023-10-13T14:26:19;15.15;;;5.53;;
7336;SDS011;54510;42.016;23.098;2023-10-13T14:28:49;18.65;;;6.38;;
7336;SDS011;54510;42.016;23.098;2023-10-13T14:31:33;12.60;;;5.63;;
7336;SDS011;54510;42.016;23.098;2023-10-13T14:34:02;18.55;;;8.00;;
7336;SDS011;54510;42.016;23.098;2023-10-13T14:36:28;15.20;;;8.38;;
7336;SDS011;54510;42.016;23.098;2023-10-13T14:38:54;10.95;;;4.80;;
7336;SDS011;54510;42.016;23.098;2023-10-13T14:41:21;11.90;;;5.72;;
7336;SDS011;54510;42.016;23.098;2023-10-13T14:43:47;17.50;;;8.23;;
7336;SDS011;54510;42.016;23.098;2023-10-13T14:46:15;12.88;;;6.80;;
7336;SDS011;54510;42.016;23.098;2023-10-13T14:48:53;15.65;;;7.43;;
7336;SDS011;54510;42.016;23.098;2023-10-13T14:51:19;12.70;;;5.32;;
7336;SDS011;54510;42.016;23.098;2023-10-13T14:53:44;8.07;;;4.93;;
7336;SDS011;54510;42.016;23.098;2023-10-13T14:56:11;9.77;;;5.22;;
7336;SDS011;54510;42.016;23.098;2023-10-13T14:58:37;11.98;;;5.10;;
7336;SDS011;54510;42.016;23.098;2023-10-13T15:01:16;14.52;;;6.63;;
7336;SDS011;54510;42.016;23.098;2023-10-13T15:03:50;11.82;;;6.70;;
7336;SDS011;54510;42.016;23.098;2023-10-13T15:06:23;12.55;;;5.40;;
7336;SDS011;54510;42.016;23.098;2023-10-13T15:08:56;11.95;;;5.38;;
7336;SDS011;54510;42.016;23.098;2023-10-13T15:11:23;14.82;;;7.15;;
7336;SDS011;54510;42.016;23.098;2023-10-13T15:13:53;17.48;;;7.65;;
7336;SDS011;54510;42.016;23.098;2023-10-13T15:16:21;12.27;;;6.28;;
7336;SDS011;54510;42.016;23.098;2023-10-13T15:18:51;13.82;;;6.15;;
7336;SDS011;54510;42.016;23.098;2023-10-13T15:21:21;15.55;;;6.43;;
7336;SDS011;54510;42.016;23.098;2023-10-13T15:23:48;17.67;;;6.10;;
7336;SDS011;54510;42.016;23.098;2023-10-13T15:26:16;15.45;;;5.72;;
7336;SDS011;54510;42.016;23.098;2023-10-13T15:28:42;16.20;;;7.25;;
7336;SDS011;54510;42.016;23.098;2023-10-13T15:31:16;24.33;;;8.32;;
7336;SDS011;54510;42.016;23.098;2023-10-13T15:33:52;14.15;;;6.93;;
7336;SDS011;54510;42.016;23.098;2023-10-13T15:36:21;13.50;;;6.45;;
7336;SDS011;54510;42.016;23.098;2023-10-13T15:38:48;14.00;;;5.85;;
7336;SDS011;54510;42.016;23.098;2023-10-13T15:41:27;14.65;;;4.63;;
7336;SDS011;54510;42.016;23.098;2023-10-13T15:43:54;13.93;;;5.45;;